sensor_id;sensor_type;location;lat;lon;timestamp;P1;durP1;ratioP1;P2;durP2;ratioP2
75634;SDS011;64227;48.724;9.104;2022-12-18T00:00:50;9.40;;;5.45;;
75634;SDS011;64227;48.724;9.104;2022-12-18T00:03:17;10.77;;;4.50;;
75634;SDS011;64227;48.724;9.104;2022-12-18T00:05:46;14.02;;;4.40;;
75634;SDS011;64227;48.724;9.104;2022-12-18T00:10:37;11.57;;;3.63;;
75634;SDS011;64227;48.724;9.104;2022-12-18T00:13:03;5.95;;;3.45;;
75634;SDS011;64227;48.724;9.104;2022-12-18T00:15:28;6.75;;;2.85;;
75634;SDS011;64227;48.724;9.104;2022-12-18T00:17:53;12.20;;;4.65;;
75634;SDS011;64227;48.724;9.104;2022-12-18T00:20:19;14.32;;;6.05;;
75634;SDS011;64227;48.724;9.104;2022-12-18T00:22:50;8.98;;;5.18;;
75634;SDS011;64227;48.724;9.104;2022-12-18T00:25:16;8.88;;;3.88;;
75634;SDS011;64227;48.724;9.104;2022-12-18T00:27:41;6.95;;;3.83;;
75634;SDS011;64227;48.724;9.104;2022-12-18T00:30:07;6.88;;;3.95;;
75634;SDS011;64227;48.724;9.104;2022-12-18T00:32:33;10.43;;;3.63;;
75634;SDS011;64227;48.724;9.104;2022-12-18T00:34:58;10.88;;;4.90;;
75634;SDS011;64227;48.724;9.104;2022-12-18T00:37:23;13.68;;;5.68;;
75634;SDS011;64227;48.724;9.104;2022-12-18T00:39:48;10.20;;;4.63;;
75634;SDS011;64227;48.724;9.104;2022-12-18T00:42:14;7.50;;;3.75;;
75634;SDS011;64227;48.724;9.104;2022-12-18T00:44:58;7.40;;;3.30;;
75634;SDS011;64227;48.724;9.104;2022-12-18T00:47:23;9.95;;;4.50;;
75634;SDS011;64227;48.724;9.104;2022-12-18T00:49:49;7.82;;;3.67;;
75634;SDS011;64227;48.724;9.104;2022-12-18T00:52:14;10.00;;;3.90;;
75634;SDS011;64227;48.724;9.104;2022-12-18T00:54:39;6.25;;;3.53;;
75634;SDS011;64227;48.724;9.104;2022-12-18T00:57:05;10.38;;;4.97;;
75634;SDS011;64227;48.724;9.104;2022-12-18T00:59:30;12.20;;;4.78;;
75634;SDS011;64227;48.724;9.104;2022-12-18T01:01:55;13.88;;;4.30;;
75634;SDS011;64227;48.724;9.104;2022-12-18T01:04:21;10.20;;;4.55;;
75634;SDS011;64227;48.724;9.104;2022-12-18T01:06:46;16.67;;;4.32;;
75634;SDS011;64227;48.724;9.104;2022-12-18T01:09:11;10.55;;;4.70;;
75634;SDS011;64227;48.724;9.104;2022-12-18T01:11:37;13.80;;;6.45;;
75634;SDS011;64227;48.724;9.104;2022-12-18T01:14:02;11.30;;;5.18;;
75634;SDS011;64227;48.724;9.104;2022-12-18T01:16:27;14.65;;;5.60;;
75634;SDS011;64227;48.724;9.104;2022-12-18T01:18:53;7.68;;;4.95;;
75634;SDS011;64227;48.724;9.104;2022-12-18T01:21:19;5.03;;;3.95;;
75634;SDS011;64227;48.724;9.104;2022-12-18T01:23:45;6.22;;;3.30;;
75634;SDS011;64227;48.724;9.104;2022-12-18T01:26:12;5.60;;;2.45;;
75634;SDS011;64227;48.724;9.104;2022-12-18T01:28:42;12.10;;;4.97;;
75634;SDS011;64227;48.724;9.104;2022-12-18T01:31:12;6.97;;;3.92;;
75634;SDS011;64227;48.724;9.104;2022-12-18T01:33:44;4.65;;;3.20;;
75634;SDS011;64227;48.724;9.104;2022-12-18T01:36:14;6.32;;;2.58;;
75634;SDS011;64227;48.724;9.104;2022-12-18T01:38:40;7.15;;;2.67;;
75634;SDS011;64227;48.724;9.104;2022-12-18T01:41:06;4.85;;;3.05;;
75634;SDS011;64227;48.724;9.104;2022-12-18T01:46:10;5.57;;;3.05;;
75634;SDS011;64227;48.724;9.104;2022-12-18T01:48:36;11.30;;;5.60;;
75634;SDS011;64227;48.724;9.104;2022-12-18T01:51:03;11.85;;;5.43;;
75634;SDS011;64227;48.724;9.104;2022-12-18T01:53:29;12.07;;;6.78;;
75634;SDS011;64227;48.724;9.104;2022-12-18T01:55:55;13.10;;;5.82;;
75634;SDS011;64227;48.724;9.104;2022-12-18T01:58:30;14.75;;;6.40;;
75634;SDS011;64227;48.724;9.104;2022-12-18T02:01:01;18.63;;;7.00;;
75634;SDS011;64227;48.724;9.104;2022-12-18T02:03:26;19.60;;;8.70;;
75634;SDS011;64227;48.724;9.104;2022-12-18T02:05:55;16.50;;;7.22;;
75634;SDS011;64227;48.724;9.104;2022-12-18T02:08:29;11.25;;;5.95;;
75634;SDS011;64227;48.724;9.104;2022-12-18T02:11:07;10.32;;;6.78;;
75634;SDS011;64227;48.724;9.104;2022-12-18T02:16:23;16.15;;;7.85;;
75634;SDS011;64227;48.724;9.104;2022-12-18T02:18:51;15.10;;;5.82;;
75634;SDS011;64227;48.724;9.104;2022-12-18T02:26:41;20.07;;;9.17;;
75634;SDS011;64227;48.724;9.104;2022-12-18T02:29:12;23.35;;;11.35;;
75634;SDS011;64227;48.724;9.104;2022-12-18T02:31:40;17.27;;;8.48;;
75634;SDS011;64227;48.724;9.104;2022-12-18T02:34:08;10.73;;;4.13;;
75634;SDS011;64227;48.724;9.104;2022-12-18T02:36:34;8.77;;;5.43;;
75634;SDS011;64227;48.724;9.104;2022-12-18T02:39:01;7.20;;;4.97;;
75634;SDS011;64227;48.724;9.104;2022-12-18T02:41:27;10.93;;;5.82;;
75634;SDS011;64227;48.724;9.104;2022-12-18T02:43:55;18.20;;;8.38;;
75634;SDS011;64227;48.724;9.104;2022-12-18T02:48:54;15.98;;;7.95;;
75634;SDS011;64227;48.724;9.104;2022-12-18T02:51:29;12.15;;;5.53;;
75634;SDS011;64227;48.724;9.104;2022-12-18T02:53:59;22.38;;;8.65;;
75634;SDS011;64227;48.724;9.104;2022-12-18T02:57:05;13.80;;;6.65;;
75634;SDS011;64227;48.724;9.104;2022-12-18T02:59:30;8.68;;;4.15;;
75634;SDS011;64227;48.724;9.104;2022-12-18T03:02:09;10.40;;;5.40;;
75634;SDS011;64227;48.724;9.104;2022-12-18T03:04:46;15.10;;;6.05;;
75634;SDS011;64227;48.724;9.104;2022-12-18T03:07:23;15.13;;;8.43;;
75634;SDS011;64227;48.724;9.104;2022-12-18T03:09:58;11.23;;;5.45;;
75634;SDS011;64227;48.724;9.104;2022-12-18T03:12:30;16.00;;;6.65;;
75634;SDS011;64227;48.724;9.104;2022-12-18T03:17:32;11.55;;;6.90;;
75634;SDS011;64227;48.724;9.104;2022-12-18T03:19:59;9.73;;;4.82;;
75634;SDS011;64227;48.724;9.104;2022-12-18T03:22:30;11.80;;;5.03;;
75634;SDS011;64227;48.724;9.104;2022-12-18T03:24:57;16.23;;;6.22;;
75634;SDS011;64227;48.724;9.104;2022-12-18T03:27:23;10.60;;;5.63;;
75634;SDS011;64227;48.724;9.104;2022-12-18T03:29:51;13.00;;;6.53;;
75634;SDS011;64227;48.724;9.104;2022-12-18T03:32:32;10.95;;;5.40;;
75634;SDS011;64227;48.724;9.104;2022-12-18T03:35:09;13.20;;;6.05;;
75634;SDS011;64227;48.724;9.104;2022-12-18T03:37:35;15.45;;;6.32;;
75634;SDS011;64227;48.724;9.104;2022-12-18T03:40:01;14.25;;;6.35;;
75634;SDS011;64227;48.724;9.104;2022-12-18T03:50:38;8.10;;;4.50;;
75634;SDS011;64227;48.724;9.104;2022-12-18T03:53:17;8.82;;;4.38;;
75634;SDS011;64227;48.724;9.104;2022-12-18T03:55:48;9.80;;;4.88;;
75634;SDS011;64227;48.724;9.104;2022-12-18T03:58:15;8.90;;;5.32;;
75634;SDS011;64227;48.724;9.104;2022-12-18T04:00:43;9.05;;;5.10;;
75634;SDS011;64227;48.724;9.104;2022-12-18T04:03:09;8.63;;;4.97;;
75634;SDS011;64227;48.724;9.104;2022-12-18T04:05:35;7.65;;;3.95;;
75634;SDS011;64227;48.724;9.104;2022-12-18T04:08:02;9.13;;;3.97;;
75634;SDS011;64227;48.724;9.104;2022-12-18T04:10:28;8.57;;;4.32;;
75634;SDS011;64227;48.724;9.104;2022-12-18T04:12:55;10.38;;;5.75;;
75634;SDS011;64227;48.724;9.104;2022-12-18T04:15:21;19.65;;;7.53;;
75634;SDS011;64227;48.724;9.104;2022-12-18T04:17:47;10.32;;;7.18;;
75634;SDS011;64227;48.724;9.104;2022-12-18T04:20:13;10.82;;;5.00;;
75634;SDS011;64227;48.724;9.104;2022-12-18T04:22:39;9.13;;;5.28;;
75634;SDS011;64227;48.724;9.104;2022-12-18T04:25:04;8.43;;;5.75;;
75634;SDS011;64227;48.724;9.104;2022-12-18T04:27:30;8.95;;;4.78;;
75634;SDS011;64227;48.724;9.104;2022-12-18T04:29:55;13.43;;;8.02;;
75634;SDS011;64227;48.724;9.104;2022-12-18T04:32:20;15.80;;;6.27;;
75634;SDS011;64227;48.724;9.104;2022-12-18T04:34:46;14.25;;;7.15;;
75634;SDS011;64227;48.724;9.104;2022-12-18T04:37:11;12.70;;;7.57;;
75634;SDS011;64227;48.724;9.104;2022-12-18T04:39:36;14.98;;;7.35;;
75634;SDS011;64227;48.724;9.104;2022-12-18T04:42:02;11.85;;;5.40;;
75634;SDS011;64227;48.724;9.104;2022-12-18T04:44:27;14.07;;;7.40;;
75634;SDS011;64227;48.724;9.104;2022-12-18T04:46:52;16.17;;;8.38;;
75634;SDS011;64227;48.724;9.104;2022-12-18T04:49:18;12.02;;;7.65;;
75634;SDS011;64227;48.724;9.104;2022-12-18T04:51:43;18.90;;;8.77;;
75634;SDS011;64227;48.724;9.104;2022-12-18T04:54:08;20.58;;;9.38;;
75634;SDS011;64227;48.724;9.104;2022-12-18T04:56:34;15.55;;;7.10;;
75634;SDS011;64227;48.724;9.104;2022-12-18T04:58:59;15.52;;;7.43;;
75634;SDS011;64227;48.724;9.104;2022-12-18T05:01:24;14.52;;;5.93;;
75634;SDS011;64227;48.724;9.104;2022-12-18T05:03:50;11.75;;;6.57;;
75634;SDS011;64227;48.724;9.104;2022-12-18T05:06:16;11.18;;;6.35;;
75634;SDS011;64227;48.724;9.104;2022-12-18T05:08:41;17.67;;;9.50;;
75634;SDS011;64227;48.724;9.104;2022-12-18T05:11:10;15.02;;;6.50;;
75634;SDS011;64227;48.724;9.104;2022-12-18T05:13:38;10.40;;;5.00;;
75634;SDS011;64227;48.724;9.104;2022-12-18T05:16:04;10.90;;;5.10;;
75634;SDS011;64227;48.724;9.104;2022-12-18T05:18:30;7.70;;;4.47;;
75634;SDS011;64227;48.724;9.104;2022-12-18T05:20:56;8.25;;;3.85;;
75634;SDS011;64227;48.724;9.104;2022-12-18T05:23:22;17.00;;;7.43;;
75634;SDS011;64227;48.724;9.104;2022-12-18T05:28:17;13.43;;;7.72;;
75634;SDS011;64227;48.724;9.104;2022-12-18T05:30:42;11.73;;;6.10;;
75634;SDS011;64227;48.724;9.104;2022-12-18T05:33:12;10.98;;;5.68;;
75634;SDS011;64227;48.724;9.104;2022-12-18T05:35:37;9.07;;;5.35;;
75634;SDS011;64227;48.724;9.104;2022-12-18T05:38:03;10.70;;;5.43;;
75634;SDS011;64227;48.724;9.104;2022-12-18T05:40:28;7.20;;;3.63;;
75634;SDS011;64227;48.724;9.104;2022-12-18T05:42:53;8.85;;;4.88;;
75634;SDS011;64227;48.724;9.104;2022-12-18T05:45:19;9.27;;;5.38;;
75634;SDS011;64227;48.724;9.104;2022-12-18T05:47:45;11.13;;;5.15;;
75634;SDS011;64227;48.724;9.104;2022-12-18T05:50:10;10.43;;;4.40;;
75634;SDS011;64227;48.724;9.104;2022-12-18T05:52:35;10.02;;;5.78;;
75634;SDS011;64227;48.724;9.104;2022-12-18T05:55:01;12.75;;;5.45;;
75634;SDS011;64227;48.724;9.104;2022-12-18T05:57:26;11.93;;;4.60;;
75634;SDS011;64227;48.724;9.104;2022-12-18T05:59:51;11.55;;;4.35;;
75634;SDS011;64227;48.724;9.104;2022-12-18T06:02:17;8.57;;;5.00;;
75634;SDS011;64227;48.724;9.104;2022-12-18T06:04:42;9.38;;;4.85;;
75634;SDS011;64227;48.724;9.104;2022-12-18T06:07:07;5.32;;;3.20;;
75634;SDS011;64227;48.724;9.104;2022-12-18T06:09:33;12.73;;;7.07;;
75634;SDS011;64227;48.724;9.104;2022-12-18T06:11:58;12.43;;;4.43;;
75634;SDS011;64227;48.724;9.104;2022-12-18T06:14:24;12.13;;;6.85;;
75634;SDS011;64227;48.724;9.104;2022-12-18T06:16:50;13.07;;;7.05;;
75634;SDS011;64227;48.724;9.104;2022-12-18T06:19:16;12.52;;;6.22;;
75634;SDS011;64227;48.724;9.104;2022-12-18T06:21:42;17.17;;;7.65;;
75634;SDS011;64227;48.724;9.104;2022-12-18T06:24:07;12.60;;;5.80;;
75634;SDS011;64227;48.724;9.104;2022-12-18T06:26:32;10.20;;;4.32;;
75634;SDS011;64227;48.724;9.104;2022-12-18T06:28:58;7.47;;;4.53;;
75634;SDS011;64227;48.724;9.104;2022-12-18T06:31:23;6.43;;;3.38;;
75634;SDS011;64227;48.724;9.104;2022-12-18T06:33:49;8.85;;;3.80;;
75634;SDS011;64227;48.724;9.104;2022-12-18T06:36:14;9.48;;;3.40;;
75634;SDS011;64227;48.724;9.104;2022-12-18T06:38:41;11.32;;;6.07;;
75634;SDS011;64227;48.724;9.104;2022-12-18T06:41:11;11.73;;;6.05;;
75634;SDS011;64227;48.724;9.104;2022-12-18T06:43:38;7.35;;;3.28;;
75634;SDS011;64227;48.724;9.104;2022-12-18T06:46:04;8.52;;;4.82;;
75634;SDS011;64227;48.724;9.104;2022-12-18T06:48:30;13.55;;;5.40;;
75634;SDS011;64227;48.724;9.104;2022-12-18T06:50:56;10.07;;;5.60;;
75634;SDS011;64227;48.724;9.104;2022-12-18T06:53:21;7.60;;;3.53;;
75634;SDS011;64227;48.724;9.104;2022-12-18T06:55:47;7.18;;;4.00;;
75634;SDS011;64227;48.724;9.104;2022-12-18T06:58:12;12.10;;;6.10;;
75634;SDS011;64227;48.724;9.104;2022-12-18T07:00:37;10.63;;;5.88;;
75634;SDS011;64227;48.724;9.104;2022-12-18T07:03:03;8.60;;;3.53;;
75634;SDS011;64227;48.724;9.104;2022-12-18T07:05:28;15.75;;;3.78;;
75634;SDS011;64227;48.724;9.104;2022-12-18T07:07:53;6.57;;;3.75;;
75634;SDS011;64227;48.724;9.104;2022-12-18T07:10:19;9.23;;;3.90;;
75634;SDS011;64227;48.724;9.104;2022-12-18T07:12:44;7.53;;;4.20;;
75634;SDS011;64227;48.724;9.104;2022-12-18T07:15:10;9.27;;;4.72;;
75634;SDS011;64227;48.724;9.104;2022-12-18T07:17:35;9.38;;;3.95;;
75634;SDS011;64227;48.724;9.104;2022-12-18T07:20:00;8.68;;;3.95;;
75634;SDS011;64227;48.724;9.104;2022-12-18T07:22:26;6.00;;;3.40;;
75634;SDS011;64227;48.724;9.104;2022-12-18T07:24:51;6.32;;;3.50;;
75634;SDS011;64227;48.724;9.104;2022-12-18T07:27:17;5.15;;;3.72;;
75634;SDS011;64227;48.724;9.104;2022-12-18T07:29:42;8.52;;;4.07;;
75634;SDS011;64227;48.724;9.104;2022-12-18T07:32:07;8.90;;;3.97;;
75634;SDS011;64227;48.724;9.104;2022-12-18T07:34:33;9.02;;;3.53;;
75634;SDS011;64227;48.724;9.104;2022-12-18T07:36:58;5.45;;;2.60;;
75634;SDS011;64227;48.724;9.104;2022-12-18T07:39:24;10.05;;;4.75;;
75634;SDS011;64227;48.724;9.104;2022-12-18T07:41:49;15.60;;;6.07;;
75634;SDS011;64227;48.724;9.104;2022-12-18T07:44:34;11.05;;;5.25;;
75634;SDS011;64227;48.724;9.104;2022-12-18T07:47:00;14.45;;;6.68;;
75634;SDS011;64227;48.724;9.104;2022-12-18T07:49:34;13.30;;;6.32;;
75634;SDS011;64227;48.724;9.104;2022-12-18T07:52:05;7.70;;;4.43;;
75634;SDS011;64227;48.724;9.104;2022-12-18T07:54:30;8.05;;;4.28;;
75634;SDS011;64227;48.724;9.104;2022-12-18T07:56:55;8.88;;;4.95;;
75634;SDS011;64227;48.724;9.104;2022-12-18T07:59:21;6.53;;;3.67;;
75634;SDS011;64227;48.724;9.104;2022-12-18T08:01:46;9.70;;;5.50;;
75634;SDS011;64227;48.724;9.104;2022-12-18T08:04:11;20.42;;;8.50;;
75634;SDS011;64227;48.724;9.104;2022-12-18T08:06:37;17.92;;;7.57;;
75634;SDS011;64227;48.724;9.104;2022-12-18T08:09:02;11.50;;;7.45;;
75634;SDS011;64227;48.724;9.104;2022-12-18T08:11:28;8.95;;;4.10;;
75634;SDS011;64227;48.724;9.104;2022-12-18T08:13:53;10.30;;;4.22;;
75634;SDS011;64227;48.724;9.104;2022-12-18T08:16:19;18.35;;;8.35;;
75634;SDS011;64227;48.724;9.104;2022-12-18T08:18:45;15.13;;;6.82;;
75634;SDS011;64227;48.724;9.104;2022-12-18T08:21:11;16.35;;;8.38;;
75634;SDS011;64227;48.724;9.104;2022-12-18T08:23:38;17.80;;;10.07;;
75634;SDS011;64227;48.724;9.104;2022-12-18T08:26:04;20.70;;;10.40;;
75634;SDS011;64227;48.724;9.104;2022-12-18T08:28:29;15.90;;;8.05;;
75634;SDS011;64227;48.724;9.104;2022-12-18T08:30:55;12.10;;;7.43;;
75634;SDS011;64227;48.724;9.104;2022-12-18T08:33:20;24.75;;;11.77;;
75634;SDS011;64227;48.724;9.104;2022-12-18T08:35:45;17.42;;;8.48;;
75634;SDS011;64227;48.724;9.104;2022-12-18T08:38:11;17.23;;;8.70;;
75634;SDS011;64227;48.724;9.104;2022-12-18T08:40:36;24.30;;;10.25;;
75634;SDS011;64227;48.724;9.104;2022-12-18T08:43:01;14.60;;;7.57;;
75634;SDS011;64227;48.724;9.104;2022-12-18T08:45:45;15.18;;;7.28;;
75634;SDS011;64227;48.724;9.104;2022-12-18T08:48:11;20.67;;;8.93;;
75634;SDS011;64227;48.724;9.104;2022-12-18T08:50:36;18.13;;;8.07;;
75634;SDS011;64227;48.724;9.104;2022-12-18T08:53:01;15.63;;;8.55;;
75634;SDS011;64227;48.724;9.104;2022-12-18T08:55:27;19.70;;;7.68;;
75634;SDS011;64227;48.724;9.104;2022-12-18T08:57:52;17.67;;;9.13;;
75634;SDS011;64227;48.724;9.104;2022-12-18T09:00:18;17.48;;;8.57;;
75634;SDS011;64227;48.724;9.104;2022-12-18T09:02:43;16.10;;;8.13;;
75634;SDS011;64227;48.724;9.104;2022-12-18T09:05:08;20.92;;;8.95;;
75634;SDS011;64227;48.724;9.104;2022-12-18T09:07:34;19.85;;;8.85;;
75634;SDS011;64227;48.724;9.104;2022-12-18T09:10:00;21.85;;;8.98;;
75634;SDS011;64227;48.724;9.104;2022-12-18T09:12:25;20.65;;;9.45;;
75634;SDS011;64227;48.724;9.104;2022-12-18T09:14:51;18.95;;;9.65;;
75634;SDS011;64227;48.724;9.104;2022-12-18T09:17:16;18.90;;;8.57;;
75634;SDS011;64227;48.724;9.104;2022-12-18T09:19:41;21.30;;;9.35;;
75634;SDS011;64227;48.724;9.104;2022-12-18T09:22:07;17.58;;;7.43;;
75634;SDS011;64227;48.724;9.104;2022-12-18T09:24:32;22.35;;;9.25;;
75634;SDS011;64227;48.724;9.104;2022-12-18T09:26:57;22.35;;;9.95;;
75634;SDS011;64227;48.724;9.104;2022-12-18T09:29:23;19.88;;;8.95;;
75634;SDS011;64227;48.724;9.104;2022-12-18T09:31:49;20.05;;;8.10;;
75634;SDS011;64227;48.724;9.104;2022-12-18T09:34:14;18.60;;;8.40;;
75634;SDS011;64227;48.724;9.104;2022-12-18T09:36:40;20.10;;;8.98;;
75634;SDS011;64227;48.724;9.104;2022-12-18T09:39:06;21.58;;;8.27;;
75634;SDS011;64227;48.724;9.104;2022-12-18T09:49:49;17.23;;;8.60;;
75634;SDS011;64227;48.724;9.104;2022-12-18T09:52:18;20.98;;;8.40;;
75634;SDS011;64227;48.724;9.104;2022-12-18T09:54:48;19.73;;;8.30;;
75634;SDS011;64227;48.724;9.104;2022-12-18T09:57:17;24.67;;;9.75;;
75634;SDS011;64227;48.724;9.104;2022-12-18T09:59:53;19.67;;;8.50;;
75634;SDS011;64227;48.724;9.104;2022-12-18T10:08:11;19.88;;;8.40;;
75634;SDS011;64227;48.724;9.104;2022-12-18T10:10:27;19.88;;;8.55;;
75634;SDS011;64227;48.724;9.104;2022-12-18T10:13:03;23.15;;;8.48;;
75634;SDS011;64227;48.724;9.104;2022-12-18T10:18:28;18.50;;;7.85;;
75634;SDS011;64227;48.724;9.104;2022-12-18T10:21:17;16.20;;;7.88;;
75634;SDS011;64227;48.724;9.104;2022-12-18T10:24:01;18.33;;;7.65;;
75634;SDS011;64227;48.724;9.104;2022-12-18T10:26:48;21.92;;;8.95;;
75634;SDS011;64227;48.724;9.104;2022-12-18T10:29:15;24.40;;;9.23;;
75634;SDS011;64227;48.724;9.104;2022-12-18T10:31:41;21.08;;;8.68;;
75634;SDS011;64227;48.724;9.104;2022-12-18T10:34:13;16.90;;;8.32;;
75634;SDS011;64227;48.724;9.104;2022-12-18T10:36:38;17.70;;;7.75;;
75634;SDS011;64227;48.724;9.104;2022-12-18T10:39:14;20.42;;;9.10;;
75634;SDS011;64227;48.724;9.104;2022-12-18T10:41:41;24.27;;;9.40;;
75634;SDS011;64227;48.724;9.104;2022-12-18T10:44:17;21.10;;;8.77;;
75634;SDS011;64227;48.724;9.104;2022-12-18T10:46:46;22.67;;;8.25;;
75634;SDS011;64227;48.724;9.104;2022-12-18T10:49:19;18.58;;;9.10;;
75634;SDS011;64227;48.724;9.104;2022-12-18T10:51:47;23.55;;;9.82;;
75634;SDS011;64227;48.724;9.104;2022-12-18T10:54:17;16.35;;;7.95;;
75634;SDS011;64227;48.724;9.104;2022-12-18T10:56:44;23.58;;;8.55;;
75634;SDS011;64227;48.724;9.104;2022-12-18T10:59:11;21.98;;;10.25;;
75634;SDS011;64227;48.724;9.104;2022-12-18T11:01:54;25.20;;;9.90;;
75634;SDS011;64227;48.724;9.104;2022-12-18T11:04:24;22.92;;;8.70;;
75634;SDS011;64227;48.724;9.104;2022-12-18T11:06:55;22.77;;;10.23;;
75634;SDS011;64227;48.724;9.104;2022-12-18T11:09:31;22.65;;;9.85;;
75634;SDS011;64227;48.724;9.104;2022-12-18T11:11:58;16.88;;;8.43;;
75634;SDS011;64227;48.724;9.104;2022-12-18T11:14:29;29.13;;;10.77;;
75634;SDS011;64227;48.724;9.104;2022-12-18T11:16:57;25.88;;;10.07;;
75634;SDS011;64227;48.724;9.104;2022-12-18T11:19:31;22.27;;;9.70;;
75634;SDS011;64227;48.724;9.104;2022-12-18T11:22:16;25.65;;;10.75;;
75634;SDS011;64227;48.724;9.104;2022-12-18T11:24:49;24.08;;;10.02;;
75634;SDS011;64227;48.724;9.104;2022-12-18T11:27:18;24.27;;;10.38;;
75634;SDS011;64227;48.724;9.104;2022-12-18T11:29:44;25.33;;;10.32;;
75634;SDS011;64227;48.724;9.104;2022-12-18T11:38:06;22.88;;;9.90;;
75634;SDS011;64227;48.724;9.104;2022-12-18T11:40:37;21.70;;;8.93;;
75634;SDS011;64227;48.724;9.104;2022-12-18T11:43:06;21.92;;;10.82;;
75634;SDS011;64227;48.724;9.104;2022-12-18T11:45:40;24.52;;;10.80;;
75634;SDS011;64227;48.724;9.104;2022-12-18T11:48:14;23.67;;;10.80;;
75634;SDS011;64227;48.724;9.104;2022-12-18T11:53:15;22.20;;;9.65;;
75634;SDS011;64227;48.724;9.104;2022-12-18T11:58:52;24.10;;;9.95;;
75634;SDS011;64227;48.724;9.104;2022-12-18T12:09:49;30.17;;;10.38;;
75634;SDS011;64227;48.724;9.104;2022-12-18T12:20:48;26.08;;;11.00;;
75634;SDS011;64227;48.724;9.104;2022-12-18T12:28:52;22.55;;;10.95;;
75634;SDS011;64227;48.724;9.104;2022-12-18T12:34:03;23.00;;;10.68;;
75634;SDS011;64227;48.724;9.104;2022-12-18T12:36:44;30.08;;;11.55;;
75634;SDS011;64227;48.724;9.104;2022-12-18T12:39:18;27.23;;;11.68;;
75634;SDS011;64227;48.724;9.104;2022-12-18T12:41:46;30.58;;;12.57;;
75634;SDS011;64227;48.724;9.104;2022-12-18T12:44:32;28.80;;;12.40;;
75634;SDS011;64227;48.724;9.104;2022-12-18T12:47:00;28.80;;;12.40;;
75634;SDS011;64227;48.724;9.104;2022-12-18T12:49:31;24.23;;;10.40;;
75634;SDS011;64227;48.724;9.104;2022-12-18T12:51:59;21.75;;;9.95;;
75634;SDS011;64227;48.724;9.104;2022-12-18T12:54:29;23.65;;;10.60;;
75634;SDS011;64227;48.724;9.104;2022-12-18T12:59:41;19.30;;;8.10;;
75634;SDS011;64227;48.724;9.104;2022-12-18T13:02:18;26.90;;;11.98;;
75634;SDS011;64227;48.724;9.104;2022-12-18T13:05:09;27.23;;;11.70;;
75634;SDS011;64227;48.724;9.104;2022-12-18T13:08:03;24.85;;;11.23;;
75634;SDS011;64227;48.724;9.104;2022-12-18T13:10:41;19.98;;;9.23;;
75634;SDS011;64227;48.724;9.104;2022-12-18T13:13:11;26.70;;;10.93;;
75634;SDS011;64227;48.724;9.104;2022-12-18T13:15:41;25.67;;;10.48;;
75634;SDS011;64227;48.724;9.104;2022-12-18T13:20:35;21.30;;;9.70;;
75634;SDS011;64227;48.724;9.104;2022-12-18T13:23:17;22.55;;;9.25;;
75634;SDS011;64227;48.724;9.104;2022-12-18T13:25:45;23.77;;;10.75;;
75634;SDS011;64227;48.724;9.104;2022-12-18T13:28:12;23.40;;;11.43;;
75634;SDS011;64227;48.724;9.104;2022-12-18T13:35:38;28.88;;;13.18;;
75634;SDS011;64227;48.724;9.104;2022-12-18T13:38:21;27.25;;;13.18;;
75634;SDS011;64227;48.724;9.104;2022-12-18T13:45:47;25.55;;;11.45;;
75634;SDS011;64227;48.724;9.104;2022-12-18T13:48:16;24.40;;;10.85;;
75634;SDS011;64227;48.724;9.104;2022-12-18T13:51:01;32.17;;;13.30;;
75634;SDS011;64227;48.724;9.104;2022-12-18T13:56:17;31.75;;;11.75;;
75634;SDS011;64227;48.724;9.104;2022-12-18T13:58:43;27.90;;;12.20;;
75634;SDS011;64227;48.724;9.104;2022-12-18T14:01:29;27.67;;;12.90;;
75634;SDS011;64227;48.724;9.104;2022-12-18T14:04:10;25.63;;;12.35;;
75634;SDS011;64227;48.724;9.104;2022-12-18T14:06:44;28.98;;;11.50;;
75634;SDS011;64227;48.724;9.104;2022-12-18T14:09:12;27.80;;;11.98;;
75634;SDS011;64227;48.724;9.104;2022-12-18T14:12:31;26.00;;;9.60;;
75634;SDS011;64227;48.724;9.104;2022-12-18T14:17:50;23.52;;;9.48;;
75634;SDS011;64227;48.724;9.104;2022-12-18T14:20:16;21.98;;;9.43;;
75634;SDS011;64227;48.724;9.104;2022-12-18T14:22:45;22.30;;;9.90;;
75634;SDS011;64227;48.724;9.104;2022-12-18T14:27:38;24.40;;;9.60;;
75634;SDS011;64227;48.724;9.104;2022-12-18T14:30:24;21.95;;;9.88;;
75634;SDS011;64227;48.724;9.104;2022-12-18T14:33:04;24.40;;;9.82;;
75634;SDS011;64227;48.724;9.104;2022-12-18T14:35:37;22.58;;;10.68;;
75634;SDS011;64227;48.724;9.104;2022-12-18T14:38:14;25.75;;;11.25;;
75634;SDS011;64227;48.724;9.104;2022-12-18T14:40:46;27.48;;;10.88;;
75634;SDS011;64227;48.724;9.104;2022-12-18T14:43:11;23.13;;;9.80;;
75634;SDS011;64227;48.724;9.104;2022-12-18T14:45:44;22.05;;;10.82;;
75634;SDS011;64227;48.724;9.104;2022-12-18T14:50:36;24.50;;;10.83;;
75634;SDS011;64227;48.724;9.104;2022-12-18T14:53:02;29.20;;;10.68;;
75634;SDS011;64227;48.724;9.104;2022-12-18T14:55:27;24.33;;;9.63;;
75634;SDS011;64227;48.724;9.104;2022-12-18T14:57:53;24.70;;;9.82;;
75634;SDS011;64227;48.724;9.104;2022-12-18T15:00:21;25.70;;;11.70;;
75634;SDS011;64227;48.724;9.104;2022-12-18T15:02:52;26.42;;;10.52;;
75634;SDS011;64227;48.724;9.104;2022-12-18T15:05:20;18.35;;;8.25;;
75634;SDS011;64227;48.724;9.104;2022-12-18T15:07:55;27.50;;;9.52;;
75634;SDS011;64227;48.724;9.104;2022-12-18T15:10:23;20.05;;;7.28;;
75634;SDS011;64227;48.724;9.104;2022-12-18T15:16:34;15.02;;;6.47;;
75634;SDS011;64227;48.724;9.104;2022-12-18T15:19:13;26.00;;;8.60;;
75634;SDS011;64227;48.724;9.104;2022-12-18T15:21:41;19.98;;;8.75;;
75634;SDS011;64227;48.724;9.104;2022-12-18T15:24:13;20.90;;;7.82;;
75634;SDS011;64227;48.724;9.104;2022-12-18T15:26:42;24.17;;;9.43;;
75634;SDS011;64227;48.724;9.104;2022-12-18T15:29:15;19.90;;;7.35;;
75634;SDS011;64227;48.724;9.104;2022-12-18T15:32:04;25.77;;;9.73;;
75634;SDS011;64227;48.724;9.104;2022-12-18T15:34:35;19.13;;;7.90;;
75634;SDS011;64227;48.724;9.104;2022-12-18T15:37:00;22.05;;;7.35;;
75634;SDS011;64227;48.724;9.104;2022-12-18T15:39:26;17.90;;;7.22;;
75634;SDS011;64227;48.724;9.104;2022-12-18T15:41:51;19.88;;;8.48;;
75634;SDS011;64227;48.724;9.104;2022-12-18T15:44:35;17.23;;;7.57;;
75634;SDS011;64227;48.724;9.104;2022-12-18T15:47:01;15.45;;;7.50;;
75634;SDS011;64227;48.724;9.104;2022-12-18T15:49:26;18.92;;;8.25;;
75634;SDS011;64227;48.724;9.104;2022-12-18T15:51:52;15.93;;;8.13;;
75634;SDS011;64227;48.724;9.104;2022-12-18T15:54:19;20.60;;;9.23;;
75634;SDS011;64227;48.724;9.104;2022-12-18T15:57:04;22.92;;;8.60;;
75634;SDS011;64227;48.724;9.104;2022-12-18T15:59:48;23.25;;;10.30;;
75634;SDS011;64227;48.724;9.104;2022-12-18T16:02:15;17.25;;;6.57;;
75634;SDS011;64227;48.724;9.104;2022-12-18T16:04:42;17.83;;;7.13;;
75634;SDS011;64227;48.724;9.104;2022-12-18T16:07:08;17.70;;;7.03;;
75634;SDS011;64227;48.724;9.104;2022-12-18T16:09:34;21.05;;;8.18;;
75634;SDS011;64227;48.724;9.104;2022-12-18T16:11:59;13.80;;;6.63;;
75634;SDS011;64227;48.724;9.104;2022-12-18T16:14:25;23.45;;;10.13;;
75634;SDS011;64227;48.724;9.104;2022-12-18T16:16:55;23.20;;;9.75;;
75634;SDS011;64227;48.724;9.104;2022-12-18T16:19:21;22.70;;;8.80;;
75634;SDS011;64227;48.724;9.104;2022-12-18T16:21:47;29.98;;;11.55;;
75634;SDS011;64227;48.724;9.104;2022-12-18T16:24:16;27.00;;;9.90;;
75634;SDS011;64227;48.724;9.104;2022-12-18T16:26:42;24.42;;;8.65;;
75634;SDS011;64227;48.724;9.104;2022-12-18T16:29:08;18.25;;;8.88;;
75634;SDS011;64227;48.724;9.104;2022-12-18T16:31:34;17.27;;;7.03;;
75634;SDS011;64227;48.724;9.104;2022-12-18T16:34:10;15.02;;;6.60;;
75634;SDS011;64227;48.724;9.104;2022-12-18T16:36:35;15.68;;;7.85;;